Time;durP1;ratioP1;P1;durP2;ratioP2;P2;SDS_P1;SDS_P2;PMS_P1;PMS_P2;Temp;Humidity;BMP_temperature;BMP_pressure;BME280_temperature;BME280_humidity;BME280_pressure;Samples;Min_cycle;Max_cycle;Signal;HPM_P1;HPM_P2
2022/01/13 00:01:54;;;;;;;21.88;10.77;;;;;;;-141.50;100.00;63355.56;5078529;28;20113;-79
2022/01/13 00:04:21;;;;;;;19.23;9.63;;;;;;;-141.50;100.00;63355.56;5070240;28;20044;-77
2022/01/13 00:06:49;;;;;;;22.10;9.18;;;;;;;-141.50;100.00;63355.56;5070000;28;20094;-78
2022/01/13 00:09:16;;;;;;;17.38;8.50;;;;;;;-141.50;100.00;63355.56;5068881;28;20118;-77
2022/01/13 00:11:46;;;;;;;19.33;8.48;;;;;;;-141.50;100.00;63355.56;5069203;28;20377;-77
2022/01/13 00:24:46;;;;;;;18.17;8.00;;;;;;;-141.50;100.00;63355.56;5076872;28;20135;-77
2022/01/13 00:27:14;;;;;;;17.88;8.82;;;;;;;-141.50;100.00;63355.56;5081154;28;20055;-77
2022/01/13 00:29:43;;;;;;;16.30;7.63;;;;;;;-141.50;100.00;63355.56;5080141;28;20069;-78
2022/01/13 00:32:13;;;;;;;19.48;8.23;;;;;;;-141.50;100.00;63355.56;5078446;28;20135;-78
2022/01/13 00:34:41;;;;;;;20.02;8.23;;;;;;;-141.50;100.00;63355.56;5075208;28;20082;-78
2022/01/13 00:37:08;;;;;;;23.75;8.85;;;;;;;-141.50;100.00;63355.56;5074235;28;20102;-78
2022/01/13 00:39:34;;;;;;;19.42;8.07;;;;;;;-141.50;100.00;63355.56;5073350;28;20068;-77
2022/01/13 00:42:01;;;;;;;19.25;8.15;;;;;;;-141.50;100.00;63355.56;5073509;28;20106;-79
2022/01/13 00:44:34;;;;;;;16.02;8.60;;;;;;;-141.50;100.00;63355.56;5072639;28;20052;-78
2022/01/13 00:47:01;;;;;;;22.48;8.60;;;;;;;-141.50;100.00;63355.56;5074122;28;20117;-78
2022/01/13 00:49:28;;;;;;;22.80;8.63;;;;;;;-141.50;100.00;63355.56;5076965;28;20079;-78
2022/01/13 00:51:54;;;;;;;18.80;8.50;;;;;;;-141.50;100.00;63355.56;5077975;28;20186;-77
2022/01/13 00:54:23;;;;;;;17.17;8.27;;;;;;;-141.50;100.00;63355.56;5073456;28;20048;-78
2022/01/13 00:56:49;;;;;;;20.77;9.13;;;;;;;-141.50;100.00;63355.56;5073290;28;20044;-78
2022/01/13 00:59:16;;;;;;;23.55;9.27;;;;;;;-141.50;100.00;63355.56;5075268;28;20106;-78
2022/01/13 01:01:45;;;;;;;17.95;8.93;;;;;;;-141.50;100.00;63355.56;5073992;28;20048;-78
2022/01/13 01:04:12;;;;;;;19.95;9.00;;;;;;;-141.50;100.00;63355.56;5075117;28;20049;-77
2022/01/13 01:06:40;;;;;;;21.20;8.90;;;;;;;-141.50;100.00;63355.56;5076170;28;20048;-79
2022/01/13 01:09:15;;;;;;;21.33;8.82;;;;;;;-141.50;100.00;63355.56;5074143;28;20729;-77
2022/01/13 01:11:45;;;;;;;11.27;5.53;;;;;;;-141.50;100.00;63355.56;5072322;28;20083;-78
2022/01/13 01:14:13;;;;;;;21.25;8.88;;;;;;;-141.50;100.00;63355.56;5076379;28;20086;-77
2022/01/13 01:16:40;;;;;;;19.80;8.43;;;;;;;-141.50;100.00;63355.56;5074778;28;20048;-78
2022/01/13 01:19:10;;;;;;;21.35;9.13;;;;;;;-141.50;100.00;63355.56;5073879;28;20052;-77
2022/01/13 01:24:27;;;;;;;20.02;8.20;;;;;;;-141.50;100.00;63355.56;5073393;28;20492;-78
2022/01/13 01:27:00;;;;;;;14.25;8.23;;;;;;;-141.50;100.00;63355.56;5072885;28;20052;-77
2022/01/13 01:29:38;;;;;;;21.48;8.23;;;;;;;-141.50;100.00;63355.56;5073955;28;20048;-78
2022/01/13 01:32:09;;;;;;;17.55;7.43;;;;;;;-141.50;100.00;63355.56;5071190;28;20075;-77
2022/01/13 01:37:06;;;;;;;16.80;7.55;;;;;;;-141.50;100.00;63355.56;5056423;28;20071;-79
2022/01/13 01:39:33;;;;;;;18.15;8.93;;;;;;;-141.50;100.00;63355.56;5058271;28;20049;-78
2022/01/13 01:41:59;;;;;;;15.75;8.45;;;;;;;-141.50;100.00;63355.56;5058898;28;20079;-80
2022/01/13 01:44:33;;;;;;;22.00;7.95;;;;;;;-141.50;100.00;63355.56;5059874;28;20099;-80
2022/01/13 01:47:01;;;;;;;18.98;8.85;;;;;;;-141.50;100.00;63355.56;5058440;28;20044;-80
2022/01/13 01:49:28;;;;;;;19.55;8.63;;;;;;;-141.50;100.00;63355.56;5056191;28;20057;-78
2022/01/13 01:52:00;;;;;;;22.45;9.45;;;;;;;-141.50;100.00;63355.56;5055524;28;20053;-77
2022/01/13 01:54:28;;;;;;;23.00;10.23;;;;;;;-141.50;100.00;63355.56;5053187;28;20053;-78
2022/01/13 01:56:54;;;;;;;18.98;9.60;;;;;;;-141.50;100.00;63355.56;5055502;28;20044;-77
2022/01/13 01:59:26;;;;;;;18.52;9.25;;;;;;;-141.50;100.00;63355.56;5058062;28;20076;-77
2022/01/13 02:01:52;;;;;;;18.10;9.93;;;;;;;-141.50;100.00;63355.56;5054629;28;20045;-77
2022/01/13 02:04:21;;;;;;;22.30;9.55;;;;;;;-141.50;100.00;63355.56;5051006;28;20048;-78
2022/01/13 02:06:48;;;;;;;18.08;9.20;;;;;;;-141.50;100.00;63355.56;5053880;28;20589;-76
2022/01/13 02:09:17;;;;;;;18.15;9.15;;;;;;;-141.50;100.00;63355.56;5052854;28;20053;-76
2022/01/13 02:11:48;;;;;;;17.83;9.13;;;;;;;-141.50;100.00;63355.56;5051534;28;20098;-77
2022/01/13 02:17:07;;;;;;;19.10;8.57;;;;;;;-141.50;100.00;63355.56;5054040;28;20053;-79
2022/01/13 02:19:37;;;;;;;21.30;8.98;;;;;;;-141.50;100.00;63355.56;5055671;28;20099;-78
2022/01/13 02:22:04;;;;;;;18.20;8.68;;;;;;;-141.50;100.00;63355.56;5055525;28;20122;-78
2022/01/13 02:24:33;;;;;;;19.05;9.20;;;;;;;-141.50;100.00;63355.56;5053460;28;20056;-78
2022/01/13 02:27:01;;;;;;;20.20;9.75;;;;;;;-141.50;100.00;63355.56;5050034;28;20059;-77
2022/01/13 02:29:27;;;;;;;18.38;9.32;;;;;;;-141.50;100.00;63355.56;5051640;28;20052;-77
2022/01/13 02:31:54;;;;;;;22.88;10.13;;;;;;;-141.50;100.00;63355.56;5050387;28;20444;-78
2022/01/13 02:34:21;;;;;;;19.08;10.23;;;;;;;-141.50;100.00;63355.56;5050372;28;20052;-77
2022/01/13 02:36:54;;;;;;;17.08;10.15;;;;;;;-141.50;100.00;63355.56;5051114;28;20045;-78
2022/01/13 02:39:23;;;;;;;25.20;11.23;;;;;;;-141.50;100.00;63355.56;5050440;28;20053;-78
2022/01/13 02:41:50;;;;;;;25.75;10.43;;;;;;;-141.50;100.00;63355.56;5048670;28;20099;-78
2022/01/13 02:44:21;;;;;;;21.35;9.75;;;;;;;-141.50;100.00;63355.56;5049256;28;20114;-77
2022/01/13 02:49:18;;;;;;;20.08;9.32;;;;;;;-141.50;100.00;63355.56;5049568;28;20044;-78
2022/01/13 02:51:48;;;;;;;16.92;9.35;;;;;;;-141.50;100.00;63355.56;5053043;28;20505;-79
2022/01/13 02:54:15;;;;;;;20.50;9.90;;;;;;;-141.50;100.00;63355.56;5053358;28;20049;-78
2022/01/13 02:56:43;;;;;;;16.48;8.68;;;;;;;-141.50;100.00;63355.56;5051803;28;20102;-77
2022/01/13 02:59:12;;;;;;;20.63;9.80;;;;;;;-141.50;100.00;63355.56;5054777;28;20045;-78
2022/01/13 03:01:39;;;;;;;19.67;9.48;;;;;;;-141.50;100.00;63355.56;5056630;28;20045;-78
2022/01/13 03:04:08;;;;;;;18.17;9.15;;;;;;;-141.50;100.00;63355.56;5056539;28;20413;-78
2022/01/13 03:06:38;;;;;;;18.38;9.18;;;;;;;-141.50;100.00;63355.56;5056179;28;20479;-78
2022/01/13 03:09:11;;;;;;;19.38;9.52;;;;;;;-141.50;100.00;63355.56;5056709;28;20053;-78
2022/01/13 03:11:38;;;;;;;17.08;9.40;;;;;;;-141.50;100.00;63355.56;5068382;28;20063;-81
2022/01/13 03:14:10;;;;;;;16.73;9.00;;;;;;;-141.50;100.00;63355.56;5074167;28;20141;-80
2022/01/13 03:16:42;;;;;;;18.02;9.40;;;;;;;-141.50;100.00;63355.56;5070193;28;20481;-78
2022/01/13 03:19:09;;;;;;;17.65;9.60;;;;;;;-141.50;100.00;63355.56;5050309;28;20120;-77
2022/01/13 03:21:37;;;;;;;19.00;10.18;;;;;;;-141.50;100.00;63355.56;5050104;28;20099;-78
2022/01/13 03:24:08;;;;;;;23.30;10.90;;;;;;;-141.50;100.00;63355.56;5050000;28;20053;-76
2022/01/13 03:26:35;;;;;;;16.25;9.68;;;;;;;-141.50;100.00;63355.56;5048402;28;20048;-77
2022/01/13 03:29:15;;;;;;;18.30;10.63;;;;;;;-141.50;100.00;63355.56;5050088;28;20045;-77
2022/01/13 03:31:45;;;;;;;19.77;9.68;;;;;;;-141.50;100.00;63355.56;5050856;28;20056;-77
2022/01/13 03:34:13;;;;;;;21.25;10.55;;;;;;;-141.50;100.00;63355.56;5050097;28;20045;-75
2022/01/13 03:36:41;;;;;;;19.83;11.15;;;;;;;-141.50;100.00;63355.56;5049548;28;20060;-76
2022/01/13 03:39:09;;;;;;;21.42;11.52;;;;;;;-141.50;100.00;63355.56;5049221;28;20464;-77
2022/01/13 03:41:38;;;;;;;23.27;11.35;;;;;;;-141.50;100.00;63355.56;5048932;28;20433;-78
2022/01/13 03:44:08;;;;;;;21.17;11.40;;;;;;;-141.50;100.00;63355.56;5051125;28;20075;-78
2022/01/13 03:46:36;;;;;;;23.17;11.57;;;;;;;-141.50;100.00;63355.56;5051109;28;20049;-79
2022/01/13 03:49:07;;;;;;;23.52;11.98;;;;;;;-141.50;100.00;63355.56;5050816;28;20102;-78
2022/01/13 03:52:01;;;;;;;20.42;13.05;;;;;;;-141.50;100.00;63355.56;5049111;28;20049;-78
2022/01/13 03:54:36;;;;;;;24.23;12.68;;;;;;;-141.50;100.00;63355.56;5032042;28;20056;-77
2022/01/13 03:57:43;;;;;;;22.10;12.18;;;;;;;-141.50;100.00;63355.56;5051890;28;20049;-78
2022/01/13 04:00:41;;;;;;;21.58;12.82;;;;;;;-141.50;100.00;63355.56;5053740;28;20057;-76
2022/01/13 04:03:09;;;;;;;27.58;14.25;;;;;;;-141.50;100.00;63355.56;5053240;28;20135;-77
2022/01/13 04:06:09;;;;;;;25.70;14.75;;;;;;;-141.50;100.00;63355.56;5053565;28;20044;-79
2022/01/13 04:08:35;;;;;;;29.83;14.82;;;;;;;-141.50;100.00;63355.56;5056214;28;20060;-79
2022/01/13 04:11:05;;;;;;;25.70;13.90;;;;;;;-141.50;100.00;63355.56;5056789;28;20106;-78
2022/01/13 04:13:49;;;;;;;30.42;15.38;;;;;;;-141.50;100.00;63355.56;5056413;28;20049;-79
2022/01/13 04:16:19;;;;;;;33.42;16.45;;;;;;;-141.50;100.00;63355.56;5057008;28;20079;-79
2022/01/13 04:18:48;;;;;;;29.45;15.13;;;;;;;-141.50;100.00;63355.56;5057646;28;20056;-77
2022/01/13 04:21:18;;;;;;;30.25;16.15;;;;;;;-141.50;100.00;63355.56;5058621;28;20048;-79
2022/01/13 04:23:46;;;;;;;34.97;15.88;;;;;;;-141.50;100.00;63355.56;5059994;28;20720;-78
2022/01/13 04:26:18;;;;;;;31.20;16.90;;;;;;;-141.50;100.00;63355.56;5062581;28;20052;-79
2022/01/13 04:28:46;;;;;;;33.97;16.63;;;;;;;-141.50;100.00;63355.56;5058196;28;20037;-78
2022/01/13 04:31:12;;;;;;;30.48;14.65;;;;;;;-141.50;100.00;63355.56;5057493;28;20151;-79
2022/01/13 04:33:39;;;;;;;29.05;14.50;;;;;;;-141.50;100.00;63355.56;5055060;28;20386;-76
2022/01/13 04:36:08;;;;;;;29.20;13.30;;;;;;;-141.50;100.00;63355.56;5058052;28;20386;-76
2022/01/13 04:38:34;;;;;;;29.45;12.90;;;;;;;-141.50;100.00;63355.56;5055796;28;20121;-78
2022/01/13 04:41:02;;;;;;;24.05;12.13;;;;;;;-141.50;100.00;63355.56;5052707;28;20052;-78
2022/01/13 04:43:31;;;;;;;24.95;12.35;;;;;;;-141.50;100.00;63355.56;5055078;28;20493;-77
2022/01/13 04:45:57;;;;;;;27.83;12.23;;;;;;;-141.50;100.00;63355.56;5054861;28;20147;-77
2022/01/13 04:48:24;;;;;;;21.67;11.65;;;;;;;-141.50;100.00;63355.56;5054745;28;20048;-78
2022/01/13 04:50:51;;;;;;;23.67;11.05;;;;;;;-141.50;100.00;63355.56;5056898;28;20057;-78
2022/01/13 04:53:17;;;;;;;25.25;12.43;;;;;;;-141.50;100.00;63355.56;5057211;28;20079;-78
2022/01/13 04:55:58;;;;;;;29.30;13.40;;;;;;;-141.50;100.00;63355.56;5050440;28;20428;-77
2022/01/13 04:58:24;;;;;;;28.92;12.60;;;;;;;-141.50;100.00;63355.56;5054083;28;20632;-75
2022/01/13 05:00:51;;;;;;;32.13;14.32;;;;;;;-141.50;100.00;63355.56;5058000;28;20052;-77
2022/01/13 05:03:18;;;;;;;32.00;14.75;;;;;;;-141.50;100.00;63355.56;5064535;28;20056;-77
2022/01/13 05:05:45;;;;;;;32.13;14.75;;;;;;;-141.50;100.00;63355.56;5076992;28;20048;-77
2022/01/13 05:08:11;;;;;;;32.72;14.68;;;;;;;-141.50;100.00;63355.56;5071216;28;20458;-76
2022/01/13 05:10:38;;;;;;;35.05;14.75;;;;;;;-141.50;100.00;63355.56;5071665;28;20064;-77
2022/01/13 05:13:08;;;;;;;34.08;14.48;;;;;;;-141.50;100.00;63355.56;5073714;28;20048;-77
2022/01/13 05:15:36;;;;;;;33.67;15.40;;;;;;;-141.50;100.00;63355.56;5079169;28;20408;-77
2022/01/13 05:18:42;;;;;;;35.17;14.48;;;;;;;-141.50;100.00;63355.56;5070662;28;20052;-76
2022/01/13 05:21:04;;;;;;;29.33;14.20;;;;;;;-141.50;100.00;63355.56;5051747;28;20053;-76
2022/01/13 05:23:31;;;;;;;32.53;14.10;;;;;;;-141.50;100.00;63355.56;5050359;28;20506;-76
2022/01/13 05:25:58;;;;;;;29.65;13.18;;;;;;;-141.50;100.00;63355.56;5062218;28;20500;-76
2022/01/13 05:28:25;;;;;;;28.35;13.50;;;;;;;-141.50;100.00;63355.56;5069195;28;20272;-76
2022/01/13 05:30:51;;;;;;;28.83;13.57;;;;;;;-141.50;100.00;63355.56;5066528;28;20068;-78
2022/01/13 05:33:18;;;;;;;28.17;12.25;;;;;;;-141.50;100.00;63355.56;5069656;28;20133;-76
2022/01/13 05:35:44;;;;;;;28.08;13.35;;;;;;;-141.50;100.00;63355.56;5072743;28;20208;-77
2022/01/13 05:38:11;;;;;;;27.38;13.55;;;;;;;-141.50;100.00;63355.56;5065689;28;20443;-76
2022/01/13 05:40:38;;;;;;;29.90;14.13;;;;;;;-141.50;100.00;63355.56;5071648;28;20060;-77
2022/01/13 05:43:05;;;;;;;27.80;13.25;;;;;;;-141.50;100.00;63355.56;5073220;28;20052;-76
2022/01/13 05:45:37;;;;;;;30.77;13.52;;;;;;;-141.50;100.00;63355.56;5071490;28;20133;-77
2022/01/13 05:48:04;;;;;;;26.05;12.85;;;;;;;-141.50;100.00;63355.56;5070661;28;20071;-77
2022/01/13 05:50:31;;;;;;;29.77;13.60;;;;;;;-141.50;100.00;63355.56;5072022;28;20496;-76
2022/01/13 05:52:59;;;;;;;28.00;13.40;;;;;;;-141.50;100.00;63355.56;5071319;28;20066;-77
2022/01/13 05:55:26;;;;;;;34.13;13.70;;;;;;;-141.50;100.00;63355.56;5070571;28;20386;-77
2022/01/13 05:57:53;;;;;;;26.38;12.52;;;;;;;-141.50;100.00;63355.56;5072107;28;20066;-77
2022/01/13 06:00:21;;;;;;;26.75;12.75;;;;;;;-141.50;100.00;63355.56;5072744;28;20052;-76
2022/01/13 06:02:50;;;;;;;27.73;12.68;;;;;;;-141.50;100.00;63355.56;5070481;28;20555;-77
2022/01/13 06:05:18;;;;;;;28.08;12.90;;;;;;;-141.50;100.00;63355.56;5071752;28;20812;-77
2022/01/13 06:07:46;;;;;;;28.52;12.73;;;;;;;-141.50;100.00;63355.56;5071577;28;20114;-77
2022/01/13 06:10:18;;;;;;;29.08;12.90;;;;;;;-141.50;100.00;63355.56;5074404;28;20052;-77
2022/01/13 06:12:50;;;;;;;27.10;12.43;;;;;;;-141.50;100.00;63355.56;5071921;28;20485;-77
2022/01/13 06:15:19;;;;;;;22.85;11.38;;;;;;;-141.50;100.00;63355.56;5072219;28;20048;-78
2022/01/13 06:17:48;;;;;;;23.63;11.93;;;;;;;-141.50;100.00;63355.56;5072282;28;20044;-77
2022/01/13 06:20:16;;;;;;;27.60;11.85;;;;;;;-141.50;100.00;63355.56;5072622;28;20100;-79
2022/01/13 06:22:45;;;;;;;27.98;12.40;;;;;;;-141.50;100.00;63355.56;5071493;28;20056;-78
2022/01/13 06:25:13;;;;;;;28.60;12.02;;;;;;;-141.50;100.00;63355.56;5072615;28;20067;-78
2022/01/13 06:27:40;;;;;;;29.58;12.25;;;;;;;-141.50;100.00;63355.56;5065740;28;20080;-77
2022/01/13 06:30:26;;;;;;;27.05;13.00;;;;;;;-141.50;100.00;63355.56;5083180;28;20044;-78
2022/01/13 06:32:53;;;;;;;26.05;12.35;;;;;;;-141.50;100.00;63355.56;5095587;28;20040;-79
2022/01/13 06:35:24;;;;;;;31.70;13.18;;;;;;;-141.50;100.00;63355.56;5061034;28;20501;-77
2022/01/13 06:37:53;;;;;;;28.27;12.73;;;;;;;-141.50;100.00;63355.56;5051956;28;20171;-77
2022/01/13 06:40:20;;;;;;;26.05;12.80;;;;;;;-141.50;100.00;63355.56;5050476;28;20084;-76
2022/01/13 06:42:46;;;;;;;27.08;12.20;;;;;;;-141.50;100.00;63355.56;5050910;28;20045;-77
2022/01/13 06:45:13;;;;;;;25.80;11.93;;;;;;;-141.50;100.00;63355.56;5052049;28;20095;-76
2022/01/13 06:47:42;;;;;;;24.10;12.15;;;;;;;-141.50;100.00;63355.56;5051390;28;20155;-77
2022/01/13 06:50:09;;;;;;;23.40;11.40;;;;;;;-141.50;100.00;63355.56;5051458;28;20048;-78
2022/01/13 06:52:36;;;;;;;22.80;11.30;;;;;;;-141.50;100.00;63355.56;5051337;28;20055;-78
2022/01/13 06:55:04;;;;;;;22.08;10.27;;;;;;;-141.50;100.00;63355.56;5049936;28;20095;-77
2022/01/13 06:57:30;;;;;;;25.30;10.85;;;;;;;-141.50;100.00;63355.56;5056929;28;20107;-77
2022/01/13 06:59:57;;;;;;;20.17;9.82;;;;;;;-141.50;100.00;63355.56;5072654;28;20078;-76
2022/01/13 07:02:25;;;;;;;21.50;10.35;;;;;;;-141.50;100.00;63355.56;5069573;28;20559;-78
2022/01/13 07:04:52;;;;;;;21.10;10.32;;;;;;;-141.50;100.00;63355.56;5070936;28;20048;-76
2022/01/13 07:07:19;;;;;;;22.63;10.88;;;;;;;-141.50;100.00;63355.56;5070874;28;20059;-77
2022/01/13 07:09:45;;;;;;;23.38;11.05;;;;;;;-141.50;100.00;63355.56;5070156;28;20048;-77
2022/01/13 07:12:12;;;;;;;20.48;10.30;;;;;;;-141.50;100.00;63355.56;5071071;28;20091;-78
2022/01/13 07:14:39;;;;;;;22.42;10.55;;;;;;;-141.50;100.00;63355.56;5072034;28;20086;-77
2022/01/13 07:17:05;;;;;;;24.75;9.18;;;;;;;-141.50;100.00;63355.56;5073443;28;20060;-76
2022/01/13 07:19:32;;;;;;;20.35;10.48;;;;;;;-141.50;100.00;63355.56;5073283;28;20048;-78
2022/01/13 07:21:59;;;;;;;22.95;9.90;;;;;;;-141.50;100.00;63355.56;5071281;28;20117;-77
2022/01/13 07:24:25;;;;;;;23.65;9.60;;;;;;;-141.50;100.00;63355.56;5069073;28;20513;-78
2022/01/13 07:26:52;;;;;;;21.17;10.45;;;;;;;-141.50;100.00;63355.56;5069453;28;20045;-78
2022/01/13 07:29:18;;;;;;;21.00;10.10;;;;;;;-141.50;100.00;63355.56;5070533;28;20048;-78
2022/01/13 07:31:47;;;;;;;23.40;10.07;;;;;;;-141.50;100.00;63355.56;5069183;28;20115;-76
2022/01/13 07:34:14;;;;;;;21.38;9.27;;;;;;;-141.50;100.00;63355.56;5069883;28;20547;-76
2022/01/13 07:36:41;;;;;;;23.02;11.15;;;;;;;-141.50;100.00;63355.56;5071065;28;20457;-76
2022/01/13 07:39:08;;;;;;;21.92;10.80;;;;;;;-141.50;100.00;63355.56;5070327;28;20416;-77
2022/01/13 07:41:37;;;;;;;18.60;8.95;;;;;;;-141.50;100.00;63355.56;5067994;28;20048;-77
2022/01/13 07:44:05;;;;;;;20.23;10.02;;;;;;;-141.50;100.00;63355.56;5070702;28;20456;-77
2022/01/13 07:46:32;;;;;;;26.08;9.73;;;;;;;-141.50;100.00;63355.56;5069762;28;20052;-77
2022/01/13 07:48:58;;;;;;;23.02;9.88;;;;;;;-141.50;100.00;63355.56;5068312;28;20044;-77
2022/01/13 07:51:26;;;;;;;22.00;9.18;;;;;;;-141.50;100.00;63355.56;5070606;28;20052;-77
2022/01/13 07:53:52;;;;;;;19.63;9.27;;;;;;;-141.50;100.00;63355.56;5070783;28;20178;-78
2022/01/13 07:56:19;;;;;;;20.58;9.45;;;;;;;-141.50;100.00;63355.56;5067749;28;20545;-78
2022/01/13 07:58:46;;;;;;;18.75;9.60;;;;;;;-141.50;100.00;63355.56;5070538;28;20182;-77
2022/01/13 08:01:13;;;;;;;24.05;9.93;;;;;;;-141.50;100.00;63355.56;5071596;28;20049;-77
2022/01/13 08:03:40;;;;;;;17.70;9.43;;;;;;;-141.50;100.00;63355.56;5068914;28;20052;-77
2022/01/13 08:06:07;;;;;;;22.90;9.40;;;;;;;-141.50;100.00;63355.56;5071769;28;20527;-77
2022/01/13 08:08:35;;;;;;;19.30;9.10;;;;;;;-141.50;100.00;63355.56;5069629;28;20045;-76
2022/01/13 08:11:04;;;;;;;20.50;9.43;;;;;;;-141.50;100.00;63355.56;5069026;28;20140;-77
2022/01/13 08:13:30;;;;;;;21.60;9.38;;;;;;;-141.50;100.00;63355.56;5069270;28;20412;-77
2022/01/13 08:16:01;;;;;;;19.45;9.88;;;;;;;-141.50;100.00;63355.56;5070013;28;20554;-78
2022/01/13 08:21:12;;;;;;;15.55;6.65;;;;;;;-141.50;100.00;63355.56;5069897;28;20492;-77
2022/01/13 08:23:39;;;;;;;18.27;8.07;;;;;;;-141.50;100.00;63355.56;5070247;28;20052;-77
2022/01/13 08:26:06;;;;;;;18.85;7.88;;;;;;;-141.50;100.00;63355.56;5067907;28;20102;-78
2022/01/13 08:28:32;;;;;;;19.40;6.90;;;;;;;-141.50;100.00;63355.56;5069238;28;20106;-77
2022/01/13 08:30:59;;;;;;;20.10;8.02;;;;;;;-141.50;100.00;63355.56;5068699;28;20057;-77
2022/01/13 08:33:26;;;;;;;18.48;7.40;;;;;;;-141.50;100.00;63355.56;5068901;28;20044;-77
2022/01/13 08:35:53;;;;;;;17.95;7.20;;;;;;;-141.50;100.00;63355.56;5069700;28;20049;-77
2022/01/13 08:38:21;;;;;;;14.02;6.90;;;;;;;-141.50;100.00;63355.56;5068255;28;20048;-76
2022/01/13 08:40:53;;;;;;;15.75;7.13;;;;;;;-141.50;100.00;63355.56;5065257;28;20048;-77
2022/01/13 08:43:21;;;;;;;14.77;6.60;;;;;;;-141.50;100.00;63355.56;5071234;28;20049;-77
2022/01/13 08:45:48;;;;;;;15.45;6.75;;;;;;;-141.50;100.00;63355.56;5073067;28;20067;-77
2022/01/13 08:48:15;;;;;;;19.75;6.85;;;;;;;-141.50;100.00;63355.56;5071606;28;20053;-77
2022/01/13 08:50:42;;;;;;;18.08;7.28;;;;;;;-141.50;100.00;63355.56;5074409;28;20427;-79
2022/01/13 08:53:09;;;;;;;14.27;7.03;;;;;;;-141.50;100.00;63355.56;5075483;28;20052;-79
2022/01/13 08:55:36;;;;;;;15.60;6.57;;;;;;;-141.50;100.00;63355.56;5076760;28;20044;-79
2022/01/13 08:58:03;;;;;;;11.32;5.53;;;;;;;-141.50;100.00;63355.56;5075766;28;20143;-78
2022/01/13 09:00:30;;;;;;;14.25;6.22;;;;;;;-141.50;100.00;63355.56;5075609;28;20053;-78
2022/01/13 09:02:57;;;;;;;12.65;6.15;;;;;;;-141.50;100.00;63355.56;5074588;28;20080;-77
2022/01/13 09:05:23;;;;;;;13.40;5.97;;;;;;;-141.50;100.00;63355.56;5075584;28;20049;-79
2022/01/13 09:07:50;;;;;;;12.77;6.35;;;;;;;-141.50;100.00;63355.56;5074231;28;20521;-80
2022/01/13 09:10:17;;;;;;;14.43;5.47;;;;;;;-141.50;100.00;63355.56;5073383;28;20125;-76
2022/01/13 09:12:45;;;;;;;14.77;6.72;;;;;;;-141.50;100.00;63355.56;5074852;28;20053;-78
2022/01/13 09:15:24;;;;;;;16.40;6.43;;;;;;;-141.50;100.00;63355.56;5074416;28;20052;-78
2022/01/13 09:17:53;;;;;;;14.15;6.00;;;;;;;-141.50;100.00;63355.56;5070853;28;20052;-78
2022/01/13 09:20:20;;;;;;;13.02;5.57;;;;;;;-141.50;100.00;63355.56;5074219;28;20110;-76
2022/01/13 09:22:47;;;;;;;10.48;5.50;;;;;;;-141.50;100.00;63355.56;5074661;28;20081;-79
2022/01/13 09:25:13;;;;;;;16.60;5.85;;;;;;;-141.50;100.00;63355.56;5073936;28;20048;-77
2022/01/13 09:27:41;;;;;;;12.82;5.20;;;;;;;-141.50;100.00;63355.56;5075455;28;20056;-78
2022/01/13 09:30:10;;;;;;;16.17;5.72;;;;;;;-141.50;100.00;63355.56;5077035;28;20612;-79
2022/01/13 09:32:38;;;;;;;15.57;5.82;;;;;;;-141.50;100.00;63355.56;5073439;28;20098;-79
2022/01/13 09:35:07;;;;;;;11.35;5.47;;;;;;;-141.50;100.00;63355.56;5075912;28;20044;-78
2022/01/13 09:37:35;;;;;;;11.95;5.45;;;;;;;-141.50;100.00;63355.56;5074729;28;20048;-78
2022/01/13 09:40:05;;;;;;;12.50;5.05;;;;;;;-141.50;100.00;63355.56;5074621;28;20385;-78
2022/01/13 09:42:34;;;;;;;12.00;5.70;;;;;;;-141.50;100.00;63355.56;5072745;28;20102;-78
2022/01/13 09:45:04;;;;;;;11.70;5.80;;;;;;;-141.50;100.00;63355.56;5075860;28;20463;-80
2022/01/13 09:47:35;;;;;;;11.73;6.05;;;;;;;-141.50;100.00;63355.56;5087992;28;20143;-80
2022/01/13 09:50:08;;;;;;;17.15;7.20;;;;;;;-141.50;100.00;63355.56;5095625;28;20040;-80
2022/01/13 09:52:36;;;;;;;10.43;5.32;;;;;;;-141.50;100.00;63355.56;5084527;28;20049;-78
2022/01/13 09:55:04;;;;;;;11.48;5.57;;;;;;;-141.50;100.00;63355.56;5073797;28;20110;-79
2022/01/13 09:57:30;;;;;;;12.68;5.43;;;;;;;-141.50;100.00;63355.56;5073583;28;20453;-80
2022/01/13 09:59:58;;;;;;;15.88;6.25;;;;;;;-141.50;100.00;63355.56;5075675;28;20032;-77
2022/01/13 10:02:25;;;;;;;12.70;5.68;;;;;;;-141.50;100.00;63355.56;5073035;28;20056;-78
2022/01/13 10:04:54;;;;;;;16.63;5.90;;;;;;;-141.50;100.00;63355.56;5074049;28;20053;-78
2022/01/13 10:07:35;;;;;;;13.18;5.80;;;;;;;-141.50;100.00;63355.56;5072995;28;20060;-77
2022/01/13 10:10:23;;;;;;;12.88;6.15;;;;;;;-141.50;100.00;63355.56;5071944;28;20048;-76
2022/01/13 10:13:00;;;;;;;14.55;5.72;;;;;;;-141.50;100.00;63355.56;5071927;28;20405;-78
2022/01/13 10:18:12;;;;;;;16.23;6.32;;;;;;;-141.50;100.00;63355.56;5071937;28;20048;-76
2022/01/13 10:20:38;;;;;;;15.77;6.22;;;;;;;-141.50;100.00;63355.56;5070874;28;20067;-77
2022/01/13 10:23:10;;;;;;;14.95;6.47;;;;;;;-141.50;100.00;63355.56;5071676;28;20052;-77
2022/01/13 10:25:43;;;;;;;15.60;5.65;;;;;;;-141.50;100.00;63355.56;5069720;28;20098;-76
2022/01/13 10:28:11;;;;;;;15.45;6.13;;;;;;;-141.50;100.00;63355.56;5071751;28;20053;-76
2022/01/13 10:30:39;;;;;;;13.95;5.72;;;;;;;-141.50;100.00;63355.56;5069206;28;20059;-76
2022/01/13 10:33:22;;;;;;;10.13;5.13;;;;;;;-141.50;100.00;63355.56;5069853;28;20052;-76
2022/01/13 10:35:51;;;;;;;10.23;4.47;;;;;;;-141.50;100.00;63355.56;5070598;28;20056;-75
2022/01/13 10:38:19;;;;;;;12.85;4.75;;;;;;;-141.50;100.00;63355.56;5070631;28;20129;-76
2022/01/13 10:40:47;;;;;;;15.27;5.03;;;;;;;-141.50;100.00;63355.56;5069106;28;20059;-75
2022/01/13 10:43:16;;;;;;;11.60;5.28;;;;;;;-141.50;100.00;63355.56;5069713;28;20704;-79
2022/01/13 10:45:55;;;;;;;11.18;5.25;;;;;;;-141.50;100.00;63355.56;5070953;28;20563;-76
2022/01/13 10:48:34;;;;;;;13.05;5.60;;;;;;;-141.50;100.00;63355.56;5069561;28;20049;-78
2022/01/13 10:51:04;;;;;;;10.23;5.00;;;;;;;-141.50;100.00;63355.56;5070727;28;20102;-77
2022/01/13 10:53:34;;;;;;;15.55;5.45;;;;;;;-141.50;100.00;63355.56;5069521;28;20102;-76
2022/01/13 10:56:05;;;;;;;10.70;5.18;;;;;;;-141.50;100.00;63355.56;5070283;28;20052;-77
2022/01/13 10:58:41;;;;;;;14.48;5.35;;;;;;;-141.50;100.00;63355.56;5071148;28;20539;-77
2022/01/13 11:01:10;;;;;;;14.15;5.45;;;;;;;-141.50;100.00;63355.56;5070800;28;20102;-77
2022/01/13 11:03:42;;;;;;;11.77;5.05;;;;;;;-141.50;100.00;63355.56;5069404;28;20048;-76
2022/01/13 11:06:10;;;;;;;19.25;6.40;;;;;;;-141.50;100.00;63355.56;5069691;28;20062;-76
2022/01/13 11:08:41;;;;;;;11.07;5.15;;;;;;;-141.50;100.00;63355.56;5070879;28;20052;-77
2022/01/13 11:11:29;;;;;;;15.00;5.47;;;;;;;-141.50;100.00;63355.56;5070142;28;20063;-77
2022/01/13 11:14:07;;;;;;;15.27;5.35;;;;;;;-141.50;100.00;63355.56;5069132;28;20504;-77
2022/01/13 11:16:36;;;;;;;11.80;5.20;;;;;;;-141.50;100.00;63355.56;5050343;28;20057;-77
2022/01/13 11:19:05;;;;;;;12.85;4.90;;;;;;;-141.50;100.00;63355.56;5066498;28;20066;-77
2022/01/13 11:21:33;;;;;;;11.55;5.07;;;;;;;-141.50;100.00;63355.56;5073547;28;20040;-77
2022/01/13 11:24:01;;;;;;;14.90;5.72;;;;;;;-141.50;100.00;63355.56;5081839;28;20052;-78
2022/01/13 11:26:28;;;;;;;13.10;6.05;;;;;;;-141.50;100.00;63355.56;5068922;28;20048;-78
2022/01/13 11:28:56;;;;;;;11.45;5.60;;;;;;;-141.50;100.00;63355.56;5068818;28;20052;-77
2022/01/13 11:31:23;;;;;;;12.93;5.72;;;;;;;-141.50;100.00;63355.56;5071322;28;20074;-76
2022/01/13 11:33:51;;;;;;;13.73;5.55;;;;;;;-141.50;100.00;63355.56;5070168;28;20056;-75
2022/01/13 11:36:18;;;;;;;11.25;6.03;;;;;;;-141.50;100.00;63355.56;5065567;28;20056;-77